sensor_id;sensor_type;location;lat;lon;timestamp;pressure;altitude;pressure_sealevel;temperature;humidity
19210;BME280;9738;51.654;14.238;2023-04-25T00:01:46;99635.34;;;7.98;93.77
19210;BME280;9738;51.654;14.238;2023-04-25T00:04:11;99632.31;;;7.93;93.78
19210;BME280;9738;51.654;14.238;2023-04-25T00:06:37;99635.28;;;7.90;94.44
19210;BME280;9738;51.654;14.238;2023-04-25T00:09:04;99635.19;;;7.82;95.20
19210;BME280;9738;51.654;14.238;2023-04-25T00:11:33;99636.19;;;7.81;95.78
19210;BME280;9738;51.654;14.238;2023-04-25T00:13:59;99627.94;;;7.84;95.21
19210;BME280;9738;51.654;14.238;2023-04-25T00:16:28;99626.31;;;7.91;95.67
19210;BME280;9738;51.654;14.238;2023-04-25T00:18:56;99622.38;;;7.95;94.94
19210;BME280;9738;51.654;14.238;2023-04-25T00:21:22;99620.06;;;8.00;95.00
19210;BME280;9738;51.654;14.238;2023-04-25T00:23:52;99622.84;;;7.91;94.29
19210;BME280;9738;51.654;14.238;2023-04-25T00:26:17;99623.66;;;7.91;94.99
19210;BME280;9738;51.654;14.238;2023-04-25T00:28:43;99620.47;;;7.88;94.56
19210;BME280;9738;51.654;14.238;2023-04-25T00:31:09;99633.84;;;7.78;94.77
19210;BME280;9738;51.654;14.238;2023-04-25T00:33:35;99634.69;;;7.78;94.85
19210;BME280;9738;51.654;14.238;2023-04-25T00:36:01;99629.97;;;7.72;95.05
19210;BME280;9738;51.654;14.238;2023-04-25T00:38:28;99634.63;;;7.70;95.31
19210;BME280;9738;51.654;14.238;2023-04-25T00:40:53;99636.06;;;7.65;95.50
19210;BME280;9738;51.654;14.238;2023-04-25T00:43:21;99632.03;;;7.61;95.59
19210;BME280;9738;51.654;14.238;2023-04-25T00:45:47;99629.00;;;7.55;96.17
19210;BME280;9738;51.654;14.238;2023-04-25T00:48:17;99632.63;;;7.54;95.91
19210;BME280;9738;51.654;14.238;2023-04-25T00:50:51;99625.72;;;7.44;96.57
19210;BME280;9738;51.654;14.238;2023-04-25T00:53:18;99631.50;;;7.39;97.00
19210;BME280;9738;51.654;14.238;2023-04-25T00:55:44;99634.16;;;7.39;97.18
19210;BME280;9738;51.654;14.238;2023-04-25T00:58:10;99632.50;;;7.38;97.18
19210;BME280;9738;51.654;14.238;2023-04-25T01:00:36;99629.13;;;7.36;97.51
19210;BME280;9738;51.654;14.238;2023-04-25T01:03:03;99627.47;;;7.35;97.28
19210;BME280;9738;51.654;14.238;2023-04-25T01:05:29;99628.63;;;7.32;97.37
19210;BME280;9738;51.654;14.238;2023-04-25T01:07:56;99628.06;;;7.29;97.80
19210;BME280;9738;51.654;14.238;2023-04-25T01:10:22;99626.69;;;7.25;97.81
19210;BME280;9738;51.654;14.238;2023-04-25T01:12:48;99625.34;;;7.21;98.30
19210;BME280;9738;51.654;14.238;2023-04-25T01:15:14;99620.31;;;7.18;98.54
19210;BME280;9738;51.654;14.238;2023-04-25T01:17:40;99619.94;;;7.13;98.92
19210;BME280;9738;51.654;14.238;2023-04-25T01:20:06;99624.53;;;7.11;98.59
19210;BME280;9738;51.654;14.238;2023-04-25T01:22:33;99623.19;;;7.07;99.21
19210;BME280;9738;51.654;14.238;2023-04-25T01:25:00;99620.38;;;7.08;99.00
19210;BME280;9738;51.654;14.238;2023-04-25T01:27:26;99626.81;;;7.05;98.74
19210;BME280;9738;51.654;14.238;2023-04-25T01:29:54;99626.97;;;7.04;99.16
19210;BME280;9738;51.654;14.238;2023-04-25T01:32:22;99626.28;;;7.02;99.05
19210;BME280;9738;51.654;14.238;2023-04-25T01:34:49;99628.53;;;6.97;99.30
19210;BME280;9738;51.654;14.238;2023-04-25T01:37:16;99619.06;;;6.94;99.09
19210;BME280;9738;51.654;14.238;2023-04-25T01:39:42;99625.66;;;6.90;99.43
19210;BME280;9738;51.654;14.238;2023-04-25T01:42:08;99629.28;;;6.89;99.38
19210;BME280;9738;51.654;14.238;2023-04-25T01:44:34;99630.13;;;6.90;99.26
19210;BME280;9738;51.654;14.238;2023-04-25T01:47:00;99630.78;;;6.92;99.44
19210;BME280;9738;51.654;14.238;2023-04-25T01:49:26;99624.66;;;6.91;99.19
19210;BME280;9738;51.654;14.238;2023-04-25T01:51:53;99626.31;;;6.92;99.61
19210;BME280;9738;51.654;14.238;2023-04-25T01:54:18;99626.47;;;6.91;99.66
19210;BME280;9738;51.654;14.238;2023-04-25T01:56:50;99628.84;;;6.94;99.53
19210;BME280;9738;51.654;14.238;2023-04-25T01:59:19;99635.00;;;6.94;99.69
19210;BME280;9738;51.654;14.238;2023-04-25T02:01:47;99622.69;;;6.93;99.55
19210;BME280;9738;51.654;14.238;2023-04-25T02:04:12;99624.38;;;6.94;99.68
19210;BME280;9738;51.654;14.238;2023-04-25T02:06:39;99622.41;;;6.96;99.81
19210;BME280;9738;51.654;14.238;2023-04-25T02:09:04;99625.22;;;6.95;99.81
19210;BME280;9738;51.654;14.238;2023-04-25T02:11:30;99626.03;;;6.95;99.47
19210;BME280;9738;51.654;14.238;2023-04-25T02:13:57;99619.06;;;6.94;99.51
19210;BME280;9738;51.654;14.238;2023-04-25T02:16:22;99620.03;;;6.93;99.17
19210;BME280;9738;51.654;14.238;2023-04-25T02:18:48;99623.81;;;6.91;99.19
19210;BME280;9738;51.654;14.238;2023-04-25T02:21:15;99628.59;;;6.87;99.68
19210;BME280;9738;51.654;14.238;2023-04-25T02:23:41;99624.13;;;6.88;99.50
19210;BME280;9738;51.654;14.238;2023-04-25T02:26:06;99620.66;;;6.87;99.58
19210;BME280;9738;51.654;14.238;2023-04-25T02:28:33;99620.94;;;6.84;99.64
19210;BME280;9738;51.654;14.238;2023-04-25T02:30:58;99624.56;;;6.83;100.00
19210;BME280;9738;51.654;14.238;2023-04-25T02:33:24;99613.56;;;6.78;100.00
19210;BME280;9738;51.654;14.238;2023-04-25T02:35:50;99615.81;;;6.73;100.00
19210;BME280;9738;51.654;14.238;2023-04-25T02:38:16;99619.44;;;6.72;100.00
19210;BME280;9738;51.654;14.238;2023-04-25T02:40:42;99617.09;;;6.69;100.00
19210;BME280;9738;51.654;14.238;2023-04-25T02:43:08;99625.06;;;6.69;100.00
19210;BME280;9738;51.654;14.238;2023-04-25T02:45:34;99617.78;;;6.71;100.00
19210;BME280;9738;51.654;14.238;2023-04-25T02:48:02;99613.03;;;6.74;100.00
19210;BME280;9738;51.654;14.238;2023-04-25T02:50:28;99607.72;;;6.74;100.00
19210;BME280;9738;51.654;14.238;2023-04-25T02:52:54;99612.16;;;6.74;100.00
19210;BME280;9738;51.654;14.238;2023-04-25T02:55:20;99611.19;;;6.75;100.00
19210;BME280;9738;51.654;14.238;2023-04-25T02:57:46;99613.31;;;6.71;100.00
19210;BME280;9738;51.654;14.238;2023-04-25T03:00:13;99604.50;;;6.71;100.00
19210;BME280;9738;51.654;14.238;2023-04-25T03:02:39;99615.41;;;6.68;100.00
19210;BME280;9738;51.654;14.238;2023-04-25T03:05:06;99608.44;;;6.67;100.00
19210;BME280;9738;51.654;14.238;2023-04-25T03:07:32;99620.03;;;6.66;100.00
19210;BME280;9738;51.654;14.238;2023-04-25T03:09:58;99607.75;;;6.65;100.00
19210;BME280;9738;51.654;14.238;2023-04-25T03:12:24;99611.06;;;6.67;100.00
19210;BME280;9738;51.654;14.238;2023-04-25T03:14:50;99606.09;;;6.64;100.00
19210;BME280;9738;51.654;14.238;2023-04-25T03:17:16;99611.28;;;6.56;100.00
19210;BME280;9738;51.654;14.238;2023-04-25T03:19:42;99608.38;;;6.49;100.00
19210;BME280;9738;51.654;14.238;2023-04-25T03:22:08;99611.47;;;6.44;100.00
19210;BME280;9738;51.654;14.238;2023-04-25T03:24:34;99613.41;;;6.42;100.00
19210;BME280;9738;51.654;14.238;2023-04-25T03:27:01;99611.88;;;6.40;100.00
19210;BME280;9738;51.654;14.238;2023-04-25T03:29:26;99611.47;;;6.35;100.00
19210;BME280;9738;51.654;14.238;2023-04-25T03:31:53;99616.78;;;6.35;100.00
19210;BME280;9738;51.654;14.238;2023-04-25T03:34:19;99615.94;;;6.34;100.00
19210;BME280;9738;51.654;14.238;2023-04-25T03:36:47;99613.31;;;6.34;100.00
19210;BME280;9738;51.654;14.238;2023-04-25T03:39:13;99600.03;;;6.34;100.00
19210;BME280;9738;51.654;14.238;2023-04-25T03:41:39;99599.22;;;6.34;100.00
19210;BME280;9738;51.654;14.238;2023-04-25T03:44:05;99603.53;;;6.35;100.00
19210;BME280;9738;51.654;14.238;2023-04-25T03:46:30;99605.91;;;6.28;100.00
19210;BME280;9738;51.654;14.238;2023-04-25T03:48:57;99599.84;;;6.18;100.00
19210;BME280;9738;51.654;14.238;2023-04-25T03:51:22;99606.38;;;6.14;100.00
19210;BME280;9738;51.654;14.238;2023-04-25T03:53:49;99609.03;;;6.14;100.00
19210;BME280;9738;51.654;14.238;2023-04-25T03:56:15;99602.75;;;6.15;100.00
19210;BME280;9738;51.654;14.238;2023-04-25T03:58:41;99604.41;;;6.16;100.00
19210;BME280;9738;51.654;14.238;2023-04-25T04:01:06;99599.25;;;6.14;100.00
19210;BME280;9738;51.654;14.238;2023-04-25T04:03:34;99606.38;;;6.14;100.00
19210;BME280;9738;51.654;14.238;2023-04-25T04:06:02;99606.53;;;6.12;100.00
19210;BME280;9738;51.654;14.238;2023-04-25T04:08:29;99612.25;;;6.17;100.00
19210;BME280;9738;51.654;14.238;2023-04-25T04:10:57;99612.09;;;6.19;100.00
19210;BME280;9738;51.654;14.238;2023-04-25T04:13:23;99613.34;;;6.25;100.00
19210;BME280;9738;51.654;14.238;2023-04-25T04:15:49;99612.91;;;6.29;100.00
19210;BME280;9738;51.654;14.238;2023-04-25T04:18:15;99611.63;;;6.33;100.00
19210;BME280;9738;51.654;14.238;2023-04-25T04:20:41;99612.47;;;6.34;100.00
19210;BME280;9738;51.654;14.238;2023-04-25T04:23:07;99611.06;;;6.39;100.00
19210;BME280;9738;51.654;14.238;2023-04-25T04:25:33;99617.03;;;6.41;100.00
19210;BME280;9738;51.654;14.238;2023-04-25T04:28:00;99614.28;;;6.43;100.00
19210;BME280;9738;51.654;14.238;2023-04-25T04:30:26;99611.88;;;6.40;100.00
19210;BME280;9738;51.654;14.238;2023-04-25T04:32:56;99608.09;;;6.42;100.00
19210;BME280;9738;51.654;14.238;2023-04-25T04:35:22;99610.91;;;6.41;100.00
19210;BME280;9738;51.654;14.238;2023-04-25T04:37:49;99612.97;;;6.47;100.00
19210;BME280;9738;51.654;14.238;2023-04-25T04:40:16;99605.84;;;6.47;100.00
19210;BME280;9738;51.654;14.238;2023-04-25T04:42:42;99605.84;;;6.47;100.00
19210;BME280;9738;51.654;14.238;2023-04-25T04:45:08;99603.19;;;6.47;100.00
19210;BME280;9738;51.654;14.238;2023-04-25T04:47:36;99613.38;;;6.52;100.00
19210;BME280;9738;51.654;14.238;2023-04-25T04:50:03;99611.56;;;6.53;100.00
19210;BME280;9738;51.654;14.238;2023-04-25T04:52:30;99620.91;;;6.57;100.00
19210;BME280;9738;51.654;14.238;2023-04-25T04:54:56;99621.31;;;6.62;100.00
19210;BME280;9738;51.654;14.238;2023-04-25T04:57:22;99621.69;;;6.67;100.00
19210;BME280;9738;51.654;14.238;2023-04-25T04:59:48;99617.38;;;6.66;100.00
19210;BME280;9738;51.654;14.238;2023-04-25T05:02:14;99619.59;;;6.70;100.00
19210;BME280;9738;51.654;14.238;2023-04-25T05:04:40;99625.88;;;6.69;100.00
19210;BME280;9738;51.654;14.238;2023-04-25T05:07:06;99618.19;;;6.76;100.00
19210;BME280;9738;51.654;14.238;2023-04-25T05:09:32;99624.72;;;6.82;100.00
19210;BME280;9738;51.654;14.238;2023-04-25T05:11:58;99618.28;;;6.84;100.00
19210;BME280;9738;51.654;14.238;2023-04-25T05:14:23;99623.28;;;6.87;100.00
19210;BME280;9738;51.654;14.238;2023-04-25T05:16:50;99619.59;;;6.98;100.00
19210;BME280;9738;51.654;14.238;2023-04-25T05:19:16;99628.50;;;7.07;100.00
19210;BME280;9738;51.654;14.238;2023-04-25T05:21:41;99619.31;;;7.19;100.00
19210;BME280;9738;51.654;14.238;2023-04-25T05:24:09;99632.53;;;7.28;100.00
19210;BME280;9738;51.654;14.238;2023-04-25T05:26:34;99618.91;;;7.41;100.00
19210;BME280;9738;51.654;14.238;2023-04-25T05:29:00;99625.34;;;7.56;100.00
19210;BME280;9738;51.654;14.238;2023-04-25T05:31:26;99627.25;;;7.64;100.00
19210;BME280;9738;51.654;14.238;2023-04-25T05:33:52;99631.81;;;7.72;100.00
19210;BME280;9738;51.654;14.238;2023-04-25T05:36:18;99635.81;;;7.76;100.00
19210;BME280;9738;51.654;14.238;2023-04-25T05:38:45;99640.38;;;7.83;100.00
19210;BME280;9738;51.654;14.238;2023-04-25T05:41:11;99641.72;;;7.88;100.00
19210;BME280;9738;51.654;14.238;2023-04-25T05:43:37;99633.84;;;7.96;100.00
19210;BME280;9738;51.654;14.238;2023-04-25T05:46:03;99636.56;;;8.04;100.00
19210;BME280;9738;51.654;14.238;2023-04-25T05:48:29;99637.78;;;8.09;100.00
19210;BME280;9738;51.654;14.238;2023-04-25T05:50:55;99645.38;;;8.04;100.00
19210;BME280;9738;51.654;14.238;2023-04-25T05:53:22;99648.88;;;8.05;100.00
19210;BME280;9738;51.654;14.238;2023-04-25T05:55:47;99638.75;;;8.08;100.00
19210;BME280;9738;51.654;14.238;2023-04-25T05:58:13;99639.81;;;8.16;100.00
19210;BME280;9738;51.654;14.238;2023-04-25T06:00:39;99644.09;;;8.08;100.00
19210;BME280;9738;51.654;14.238;2023-04-25T06:03:07;99651.06;;;8.09;99.17
19210;BME280;9738;51.654;14.238;2023-04-25T06:05:35;99653.63;;;8.19;99.25
19210;BME280;9738;51.654;14.238;2023-04-25T06:08:02;99651.88;;;8.28;100.00
19210;BME280;9738;51.654;14.238;2023-04-25T06:10:28;99646.22;;;8.31;95.76
19210;BME280;9738;51.654;14.238;2023-04-25T06:12:53;99645.47;;;8.38;96.72
19210;BME280;9738;51.654;14.238;2023-04-25T06:15:20;99649.06;;;8.55;97.31
19210;BME280;9738;51.654;14.238;2023-04-25T06:17:46;99646.03;;;8.50;93.35
19210;BME280;9738;51.654;14.238;2023-04-25T06:20:11;99643.09;;;8.53;93.73
19210;BME280;9738;51.654;14.238;2023-04-25T06:22:38;99645.16;;;8.68;92.75
19210;BME280;9738;51.654;14.238;2023-04-25T06:25:04;99635.91;;;8.80;91.40
19210;BME280;9738;51.654;14.238;2023-04-25T06:27:30;99643.63;;;8.99;87.98
19210;BME280;9738;51.654;14.238;2023-04-25T06:29:56;99645.66;;;9.05;84.93
19210;BME280;9738;51.654;14.238;2023-04-25T06:32:22;99640.97;;;8.99;84.85
19210;BME280;9738;51.654;14.238;2023-04-25T06:34:47;99641.66;;;9.09;86.98
19210;BME280;9738;51.654;14.238;2023-04-25T06:37:14;99649.41;;;9.37;83.52
19210;BME280;9738;51.654;14.238;2023-04-25T06:39:40;99646.41;;;9.40;81.84
19210;BME280;9738;51.654;14.238;2023-04-25T06:42:05;99644.91;;;9.29;81.10
19210;BME280;9738;51.654;14.238;2023-04-25T06:44:32;99653.06;;;9.36;82.70
19210;BME280;9738;51.654;14.238;2023-04-25T06:46:57;99645.09;;;9.60;82.09
19210;BME280;9738;51.654;14.238;2023-04-25T06:49:23;99643.31;;;9.77;81.50
19210;BME280;9738;51.654;14.238;2023-04-25T06:51:49;99641.31;;;9.87;78.91
19210;BME280;9738;51.654;14.238;2023-04-25T06:54:15;99645.09;;;9.60;78.73
19210;BME280;9738;51.654;14.238;2023-04-25T06:56:41;99640.59;;;9.53;80.55
19210;BME280;9738;51.654;14.238;2023-04-25T06:59:07;99648.13;;;9.57;79.30
19210;BME280;9738;51.654;14.238;2023-04-25T07:01:33;99638.81;;;9.69;79.29
19210;BME280;9738;51.654;14.238;2023-04-25T07:03:59;99644.47;;;9.83;79.88
19210;BME280;9738;51.654;14.238;2023-04-25T07:06:25;99649.81;;;9.83;78.66
19210;BME280;9738;51.654;14.238;2023-04-25T07:08:52;99646.13;;;9.84;78.05
19210;BME280;9738;51.654;14.238;2023-04-25T07:11:18;99639.28;;;9.65;79.38
19210;BME280;9738;51.654;14.238;2023-04-25T07:13:44;99651.47;;;9.84;79.01
19210;BME280;9738;51.654;14.238;2023-04-25T07:16:10;99650.31;;;10.11;78.93
19210;BME280;9738;51.654;14.238;2023-04-25T07:18:35;99651.16;;;10.36;78.34
19210;BME280;9738;51.654;14.238;2023-04-25T07:21:02;99652.81;;;10.45;76.03
19210;BME280;9738;51.654;14.238;2023-04-25T07:23:28;99648.47;;;10.19;75.64
19210;BME280;9738;51.654;14.238;2023-04-25T07:25:54;99648.31;;;10.13;74.71
19210;BME280;9738;51.654;14.238;2023-04-25T07:28:20;99647.50;;;10.28;75.49
19210;BME280;9738;51.654;14.238;2023-04-25T07:30:46;99648.31;;;10.29;74.91
19210;BME280;9738;51.654;14.238;2023-04-25T07:33:12;99649.78;;;10.48;75.78
19210;BME280;9738;51.654;14.238;2023-04-25T07:35:38;99651.44;;;10.65;74.41
19210;BME280;9738;51.654;14.238;2023-04-25T07:38:04;99644.59;;;10.63;71.85
19210;BME280;9738;51.654;14.238;2023-04-25T07:40:32;99650.69;;;10.88;72.20
19210;BME280;9738;51.654;14.238;2023-04-25T07:42:58;99647.41;;;11.17;72.65
19210;BME280;9738;51.654;14.238;2023-04-25T07:45:24;99649.63;;;11.36;69.29
19210;BME280;9738;51.654;14.238;2023-04-25T07:47:50;99644.22;;;11.13;69.10
19210;BME280;9738;51.654;14.238;2023-04-25T07:50:16;99646.41;;;10.70;70.84
19210;BME280;9738;51.654;14.238;2023-04-25T07:52:42;99658.78;;;10.55;71.79
19210;BME280;9738;51.654;14.238;2023-04-25T07:55:08;99655.59;;;10.68;71.19
19210;BME280;9738;51.654;14.238;2023-04-25T07:57:34;99662.16;;;10.57;71.56
19210;BME280;9738;51.654;14.238;2023-04-25T08:00:00;99653.66;;;10.37;72.14
19210;BME280;9738;51.654;14.238;2023-04-25T08:02:26;99661.47;;;10.22;72.23
19210;BME280;9738;51.654;14.238;2023-04-25T08:04:54;99665.97;;;10.22;72.25
19210;BME280;9738;51.654;14.238;2023-04-25T08:07:20;99661.66;;;10.45;72.24
19210;BME280;9738;51.654;14.238;2023-04-25T08:09:46;99662.59;;;10.77;69.77
19210;BME280;9738;51.654;14.238;2023-04-25T08:12:12;99656.47;;;11.07;69.29
19210;BME280;9738;51.654;14.238;2023-04-25T08:14:38;99653.56;;;11.17;70.05
19210;BME280;9738;51.654;14.238;2023-04-25T08:17:05;99659.78;;;11.09;67.35
19210;BME280;9738;51.654;14.238;2023-04-25T08:19:31;99656.19;;;10.94;68.46
19210;BME280;9738;51.654;14.238;2023-04-25T08:21:57;99669.22;;;10.81;68.87
19210;BME280;9738;51.654;14.238;2023-04-25T08:24:23;99665.63;;;10.66;70.22
19210;BME280;9738;51.654;14.238;2023-04-25T08:26:49;99675.78;;;10.70;71.37
19210;BME280;9738;51.654;14.238;2023-04-25T08:29:15;99678.47;;;10.62;70.71
19210;BME280;9738;51.654;14.238;2023-04-25T08:31:41;99676.81;;;10.61;72.22
19210;BME280;9738;51.654;14.238;2023-04-25T08:34:07;99683.50;;;10.57;72.76
19210;BME280;9738;51.654;14.238;2023-04-25T08:36:33;99684.84;;;10.53;72.56
19210;BME280;9738;51.654;14.238;2023-04-25T08:38:59;99679.31;;;10.54;73.12
19210;BME280;9738;51.654;14.238;2023-04-25T08:41:26;99682.13;;;10.61;73.29
19210;BME280;9738;51.654;14.238;2023-04-25T08:43:53;99691.66;;;10.55;73.61
19210;BME280;9738;51.654;14.238;2023-04-25T08:46:19;99697.22;;;10.38;73.28
19210;BME280;9738;51.654;14.238;2023-04-25T08:48:46;99699.22;;;10.44;75.09
19210;BME280;9738;51.654;14.238;2023-04-25T08:51:19;99701.88;;;10.44;75.17
19210;BME280;9738;51.654;14.238;2023-04-25T08:53:49;99696.34;;;10.53;73.80
19210;BME280;9738;51.654;14.238;2023-04-25T08:56:16;99705.53;;;10.59;73.28
19210;BME280;9738;51.654;14.238;2023-04-25T08:58:49;99700.50;;;10.64;73.01
19210;BME280;9738;51.654;14.238;2023-04-25T09:01:18;99713.88;;;10.64;73.43
19210;BME280;9738;51.654;14.238;2023-04-25T09:03:44;99719.53;;;10.53;72.36
19210;BME280;9738;51.654;14.238;2023-04-25T09:06:13;99723.41;;;10.34;73.28
19210;BME280;9738;51.654;14.238;2023-04-25T09:08:39;99724.56;;;10.40;74.59
19210;BME280;9738;51.654;14.238;2023-04-25T09:11:09;99725.56;;;10.39;73.93
19210;BME280;9738;51.654;14.238;2023-04-25T09:13:35;99727.22;;;10.40;74.63
19210;BME280;9738;51.654;14.238;2023-04-25T09:16:01;99738.59;;;10.25;74.06
19210;BME280;9738;51.654;14.238;2023-04-25T09:18:31;99727.84;;;10.17;73.23
19210;BME280;9738;51.654;14.238;2023-04-25T09:21:05;99735.84;;;10.17;73.77
19210;BME280;9738;51.654;14.238;2023-04-25T09:23:39;99735.09;;;10.25;74.71
19210;BME280;9738;51.654;14.238;2023-04-25T09:26:07;99736.38;;;10.21;73.18
19210;BME280;9738;51.654;14.238;2023-04-25T09:28:34;99744.53;;;10.11;74.10
19210;BME280;9738;51.654;14.238;2023-04-25T09:31:00;99737.06;;;10.47;73.90
19210;BME280;9738;51.654;14.238;2023-04-25T09:33:29;99731.47;;;10.98;75.86
19210;BME280;9738;51.654;14.238;2023-04-25T09:36:04;99735.28;;;11.12;71.50
19210;BME280;9738;51.654;14.238;2023-04-25T09:38:32;99741.50;;;10.96;70.55
19210;BME280;9738;51.654;14.238;2023-04-25T09:40:58;99741.50;;;10.88;70.40
19210;BME280;9738;51.654;14.238;2023-04-25T09:43:25;99737.94;;;11.20;69.43
19210;BME280;9738;51.654;14.238;2023-04-25T09:45:53;99732.00;;;11.41;65.89
19210;BME280;9738;51.654;14.238;2023-04-25T09:48:24;99730.25;;;11.56;66.44
19210;BME280;9738;51.654;14.238;2023-04-25T09:51:14;99729.38;;;11.95;65.07
19210;BME280;9738;51.654;14.238;2023-04-25T09:53:46;99727.88;;;11.61;64.05
19210;BME280;9738;51.654;14.238;2023-04-25T09:56:12;99740.22;;;11.39;64.37
19210;BME280;9738;51.654;14.238;2023-04-25T09:58:40;99735.28;;;11.20;65.84
19210;BME280;9738;51.654;14.238;2023-04-25T10:01:08;99736.78;;;11.14;65.84
19210;BME280;9738;51.654;14.238;2023-04-25T10:03:36;99744.81;;;11.06;65.55
19210;BME280;9738;51.654;14.238;2023-04-25T10:06:04;99739.66;;;10.96;66.00
19210;BME280;9738;51.654;14.238;2023-04-25T10:08:35;99748.03;;;10.85;65.97
19210;BME280;9738;51.654;14.238;2023-04-25T10:11:06;99751.06;;;10.74;68.32
19210;BME280;9738;51.654;14.238;2023-04-25T10:13:34;99756.25;;;10.67;70.08
19210;BME280;9738;51.654;14.238;2023-04-25T10:16:03;99762.44;;;10.60;72.74
19210;BME280;9738;51.654;14.238;2023-04-25T10:18:32;99761.09;;;10.39;75.53
19210;BME280;9738;51.654;14.238;2023-04-25T10:21:01;99766.09;;;10.34;77.83
19210;BME280;9738;51.654;14.238;2023-04-25T10:23:28;99762.78;;;10.32;75.73
19210;BME280;9738;51.654;14.238;2023-04-25T10:25:54;99765.94;;;10.36;80.44
19210;BME280;9738;51.654;14.238;2023-04-25T10:28:22;99777.78;;;10.33;87.34
19210;BME280;9738;51.654;14.238;2023-04-25T10:33:45;99783.47;;;9.71;95.39
19210;BME280;9738;51.654;14.238;2023-04-25T10:36:15;99784.72;;;9.51;100.00
19210;BME280;9738;51.654;14.238;2023-04-25T10:38:44;99796.47;;;9.32;100.00
19210;BME280;9738;51.654;14.238;2023-04-25T10:41:11;99790.56;;;9.20;100.00
19210;BME280;9738;51.654;14.238;2023-04-25T10:46:25;99791.47;;;9.29;100.00
19210;BME280;9738;51.654;14.238;2023-04-25T10:48:53;99791.28;;;9.31;100.00
19210;BME280;9738;51.654;14.238;2023-04-25T10:53:46;99792.00;;;9.41;100.00
19210;BME280;9738;51.654;14.238;2023-04-25T10:58:48;99803.00;;;9.38;100.00
19210;BME280;9738;51.654;14.238;2023-04-25T11:01:15;99799.59;;;9.28;100.00
19210;BME280;9738;51.654;14.238;2023-04-25T11:03:44;99807.88;;;9.16;100.00
19210;BME280;9738;51.654;14.238;2023-04-25T11:06:22;99805.22;;;9.16;100.00
19210;BME280;9738;51.654;14.238;2023-04-25T11:08:50;99805.34;;;9.15;100.00
19210;BME280;9738;51.654;14.238;2023-04-25T11:11:18;99801.84;;;9.14;100.00
19210;BME280;9738;51.654;14.238;2023-04-25T11:13:47;99810.38;;;9.18;100.00
19210;BME280;9738;51.654;14.238;2023-04-25T11:16:13;99811.22;;;9.18;100.00
19210;BME280;9738;51.654;14.238;2023-04-25T11:18:43;99820.50;;;9.14;99.98
19210;BME280;9738;51.654;14.238;2023-04-25T11:21:10;99813.03;;;9.18;100.00
19210;BME280;9738;51.654;14.238;2023-04-25T11:23:36;99819.72;;;9.22;100.00
19210;BME280;9738;51.654;14.238;2023-04-25T11:26:03;99821.03;;;9.18;93.53
19210;BME280;9738;51.654;14.238;2023-04-25T11:28:29;99824.69;;;9.17;89.29
19210;BME280;9738;51.654;14.238;2023-04-25T11:30:56;99825.91;;;9.23;90.36
19210;BME280;9738;51.654;14.238;2023-04-25T11:33:23;99830.03;;;9.51;88.81
19210;BME280;9738;51.654;14.238;2023-04-25T11:35:49;99823.97;;;9.75;85.78
19210;BME280;9738;51.654;14.238;2023-04-25T11:38:15;99823.19;;;9.91;84.77
19210;BME280;9738;51.654;14.238;2023-04-25T11:40:41;99829.59;;;10.06;82.92
19210;BME280;9738;51.654;14.238;2023-04-25T11:43:08;99826.94;;;10.22;81.62
19210;BME280;9738;51.654;14.238;2023-04-25T11:45:36;99833.53;;;10.44;83.79
19210;BME280;9738;51.654;14.238;2023-04-25T11:48:03;99830.03;;;10.44;81.53
19210;BME280;9738;51.654;14.238;2023-04-25T11:50:29;99837.19;;;10.60;81.14
19210;BME280;9738;51.654;14.238;2023-04-25T11:52:56;99839.03;;;10.59;78.46
19210;BME280;9738;51.654;14.238;2023-04-25T11:55:22;99840.34;;;10.47;72.86
19210;BME280;9738;51.654;14.238;2023-04-25T11:57:49;99841.19;;;10.47;76.46
19210;BME280;9738;51.654;14.238;2023-04-25T12:00:16;99842.34;;;10.37;74.95
19210;BME280;9738;51.654;14.238;2023-04-25T12:02:45;99838.66;;;10.29;74.84
19210;BME280;9738;51.654;14.238;2023-04-25T12:05:12;99849.44;;;10.12;75.86
19210;BME280;9738;51.654;14.238;2023-04-25T12:07:39;99847.75;;;10.02;76.93
19210;BME280;9738;51.654;14.238;2023-04-25T12:10:12;99844.56;;;9.99;78.61
19210;BME280;9738;51.654;14.238;2023-04-25T12:12:42;99846.19;;;9.92;79.23
19210;BME280;9738;51.654;14.238;2023-04-25T12:15:16;99856.09;;;9.99;79.05
19210;BME280;9738;51.654;14.238;2023-04-25T12:17:46;99848.56;;;10.03;78.59
19210;BME280;9738;51.654;14.238;2023-04-25T12:20:15;99855.38;;;9.97;75.77
19210;BME280;9738;51.654;14.238;2023-04-25T12:22:45;99863.91;;;9.93;76.31
19210;BME280;9738;51.654;14.238;2023-04-25T12:25:13;99869.34;;;9.83;73.27
19210;BME280;9738;51.654;14.238;2023-04-25T12:27:39;99870.78;;;9.69;70.30
19210;BME280;9738;51.654;14.238;2023-04-25T12:30:07;99870.31;;;9.74;70.74
19210;BME280;9738;51.654;14.238;2023-04-25T12:32:33;99872.19;;;9.82;68.43
19210;BME280;9738;51.654;14.238;2023-04-25T12:35:00;99871.19;;;9.83;66.97
19210;BME280;9738;51.654;14.238;2023-04-25T12:37:25;99867.03;;;9.88;67.38
19210;BME280;9738;51.654;14.238;2023-04-25T12:39:51;99873.22;;;9.97;66.88
19210;BME280;9738;51.654;14.238;2023-04-25T12:42:18;99864.56;;;10.03;66.13
19210;BME280;9738;51.654;14.238;2023-04-25T12:44:43;99878.38;;;9.98;64.54
19210;BME280;9738;51.654;14.238;2023-04-25T12:47:09;99869.75;;;10.05;65.27
19210;BME280;9738;51.654;14.238;2023-04-25T12:49:36;99875.78;;;10.07;65.28
19210;BME280;9738;51.654;14.238;2023-04-25T12:52:01;99872.91;;;10.00;65.95
19210;BME280;9738;51.654;14.238;2023-04-25T12:54:27;99878.38;;;9.98;65.08
19210;BME280;9738;51.654;14.238;2023-04-25T12:56:53;99869.56;;;9.98;64.32
19210;BME280;9738;51.654;14.238;2023-04-25T12:59:20;99874.88;;;9.98;64.14
19210;BME280;9738;51.654;14.238;2023-04-25T13:01:47;99880.38;;;9.88;63.08
19210;BME280;9738;51.654;14.238;2023-04-25T13:04:13;99876.69;;;9.81;62.40
19210;BME280;9738;51.654;14.238;2023-04-25T13:06:39;99877.34;;;9.83;63.21
19210;BME280;9738;51.654;14.238;2023-04-25T13:09:04;99884.81;;;9.80;63.27
19210;BME280;9738;51.654;14.238;2023-04-25T13:11:31;99881.28;;;9.71;62.91
19210;BME280;9738;51.654;14.238;2023-04-25T13:13:56;99887.16;;;9.74;63.76